Map

Track Data

SID SEASON NUMBER BASIN SUBBASIN NAME ISO_TIME NATURE LAT LON WMO_WIND WMO_PRES WMO_AGENCY TRACK_TYPE DIST2LAND LANDFALL IFLAG USA_AGENCY USA_ATCF_ID USA_LAT USA_LON USA_RECORD USA_STATUS USA_WIND USA_PRES USA_SSHS USA_R34_NE USA_R34_SE USA_R34_SW USA_R34_NW USA_R50_NE USA_R50_SE USA_R50_SW USA_R50_NW USA_R64_NE USA_R64_SE USA_R64_SW USA_R64_NW USA_POCI USA_ROCI USA_RMW USA_EYE TOKYO_LAT TOKYO_LON TOKYO_GRADE TOKYO_WIND TOKYO_PRES TOKYO_R50_DIR TOKYO_R50_LONG TOKYO_R50_SHORT TOKYO_R30_DIR TOKYO_R30_LONG TOKYO_R30_SHORT TOKYO_LAND CMA_LAT CMA_LON CMA_CAT CMA_WIND CMA_PRES HKO_LAT HKO_LON HKO_CAT HKO_WIND HKO_PRES NEWDELHI_LAT NEWDELHI_LON NEWDELHI_GRADE NEWDELHI_WIND NEWDELHI_PRES NEWDELHI_CI NEWDELHI_DP NEWDELHI_POCI REUNION_LAT REUNION_LON REUNION_TYPE REUNION_WIND REUNION_PRES REUNION_TNUM REUNION_CI REUNION_RMW REUNION_R34_NE REUNION_R34_SE REUNION_R34_SW REUNION_R34_NW REUNION_R50_NE REUNION_R50_SE REUNION_R50_SW REUNION_R50_NW REUNION_R64_NE REUNION_R64_SE REUNION_R64_SW REUNION_R64_NW BOM_LAT BOM_LON BOM_TYPE BOM_WIND BOM_PRES BOM_TNUM BOM_CI BOM_RMW BOM_R34_NE BOM_R34_SE BOM_R34_SW BOM_R34_NW BOM_R50_NE BOM_R50_SE BOM_R50_SW BOM_R50_NW BOM_R64_NE BOM_R64_SE BOM_R64_SW BOM_R64_NW BOM_ROCI BOM_POCI BOM_EYE BOM_POS_METHOD BOM_PRES_METHOD NADI_LAT NADI_LON NADI_CAT NADI_WIND NADI_PRES WELLINGTON_LAT WELLINGTON_LON WELLINGTON_WIND WELLINGTON_PRES DS824_LAT DS824_LON DS824_STAGE DS824_WIND DS824_PRES TD9636_LAT TD9636_LON TD9636_STAGE TD9636_WIND TD9636_PRES TD9635_LAT TD9635_LON TD9635_WIND TD9635_PRES TD9635_ROCI NEUMANN_LAT NEUMANN_LON NEUMANN_CLASS NEUMANN_WIND NEUMANN_PRES MLC_LAT MLC_LON MLC_CLASS MLC_WIND MLC_PRES USA_GUST BOM_GUST BOM_GUST_PER REUNION_GUST REUNION_GUST_PER USA_SEAHGT USA_SEARAD_NE USA_SEARAD_SE USA_SEARAD_SW USA_SEARAD_NW STORM_SPEED STORM_DIR
1956084S12138 1956 30 SP EA NOT_NAMED 1956-03-24 05:00:00 NR -11.5000 138.000 999 bom main 141 132 ______O_______ -1 -11.5000 138.000 999 6 245
1956084S12138 1956 30 SP EA NOT_NAMED 1956-03-24 06:00:00 NR -11.5416 137.912 main 132 101 ______P_______ -1 -11.5416 137.912 6 245
1956084S12138 1956 30 SP EA NOT_NAMED 1956-03-24 09:00:00 NR -11.6636 137.649 main 93 93 ______P_______ -1 -11.6636 137.649 4 245
1956084S12138 1956 30 SP EA NOT_NAMED 1956-03-24 11:00:00 NR -11.6921 137.580 main 93 93 ______P___O___ -1 -11.7401 137.476 -11.5000 138.000 1 10 0 0
1956084S12138 1956 30 SP EA NOT_NAMED 1956-03-24 12:00:00 TS -11.6779 137.636 main 93 70 O_____P___P___ jtwc_sh SH281956 -11.6000 137.900 15 -1 -11.7763 137.390 -11.5590 137.863 1 13 4 248
1956084S12138 1956 30 SP EA NOT_NAMED 1956-03-24 15:00:00 TS -11.7944 137.329 main 64 44 P_____P___P___ SH281956 -11.7652 137.425 27 -1 -11.8729 137.139 -11.7285 137.455 1 23 7 250
1956084S12138 1956 30 SP EA NOT_NAMED 1956-03-24 18:00:00 TS -11.9053 136.990 main 44 21 O_____P___P___ jtwc_sh SH281956 -11.9000 137.000 40 0 -11.9466 136.899 -11.8718 137.067 1 33 7 254
1956084S12138 1956 30 SP EA NOT_NAMED 1956-03-24 21:00:00 TS -11.9800 136.678 main 21 0 P_____P___P___ SH281956 -11.9799 136.662 45 0 -11.9907 136.674 -11.9695 136.711 1 43 6 259
1956084S12138 1956 30 SP EA NOT_NAMED 1956-03-24 23:00:00 TS -12.0001 136.499 main 0 0 P_____P___O___ SH281956 -12.0000 136.481 48 0 -12.0004 136.534 -12.0000 136.500 2 50 5 264
1956084S12138 1956 30 SP EA NOT_NAMED 1956-03-24 23:30:00 TS -12.0010 136.458 990 bom main 0 0 P_____O___P___ SH281956 -12.0008 136.440 49 0 -12.0000 136.500 990 4 -12.0025 136.451 2 4 270
1956084S12138 1956 30 SP EA NOT_NAMED 1956-03-25 00:00:00 TS -12.0004 136.422 main 10 10 O_____P__OP___ jtwc_sh SH281956 -12.0000 136.400 50 0 -11.9985 136.467 -12.0000 136.500 TC 45 990 -12.0030 136.404 2 4 277
1956084S12138 1956 30 SP EA NOT_NAMED 1956-03-25 03:00:00 TS -11.9700 136.212 main 22 22 P_____P__PP___ SH281956 -11.9649 136.192 47 0 -11.9689 136.278 -11.9881 136.287 TC -11.9721 136.147 2 4 282
1956084S12138 1956 30 SP EA NOT_NAMED 1956-03-25 06:00:00 TS -11.9163 136.018 main 31 22 O_____P__PP___ jtwc_sh SH281956 -11.9000 136.000 45 0 -11.9150 136.100 -11.9760 136.075 TC -11.9055 135.927 2 4 284
1956084S12138 1956 30 SP EA NOT_NAMED 1956-03-25 09:00:00 TS -11.8670 135.803 main 22 22 P_____P__PP___ SH281956 -11.8425 135.750 45 0 -11.8518 135.924 -11.9637 135.862 TC -11.8344 135.728 2 4 282
1956084S12138 1956 30 SP EA NOT_NAMED 1956-03-25 11:00:00 TS -11.8379 135.657 main 33 33 P_____P__PO___ SH281956 -11.8110 135.580 45 0 -11.8120 135.803 -11.9554 135.721 TC -11.8000 135.600 2 4 280
1956084S12138 1956 30 SP EA NOT_NAMED 1956-03-25 12:00:00 TS -11.8278 135.585 main 33 33 O_____P__PP___ jtwc_sh SH281956 -11.8000 135.500 45 0 -11.7945 135.740 -11.9513 135.650 TC -11.7933 135.534 2 4 276
1956084S12138 1956 30 SP EA NOT_NAMED 1956-03-25 15:00:00 TS -11.8109 135.381 main 40 40 P_____P__PP___ SH281956 -11.7850 135.293 42 0 -11.7581 135.539 -11.9387 135.437 TC -11.7877 135.342 2 4 271
1956084S12138 1956 30 SP EA NOT_NAMED 1956-03-25 18:00:00 TS -11.8180 135.178 main 44 40 O_____P__PP___ jtwc_sh SH281956 -11.8000 135.100 40 0 -11.7577 135.313 -11.9260 135.225 TC -11.8064 135.151 2 4 265
1956084S12138 1956 30 SI WA NOT_NAMED 1956-03-25 21:00:00 TS -11.8487 134.965 main 40 22 P_____P__PP___ SH281956 -11.8350 134.907 40 0 -11.8082 135.051 -11.9131 135.012 TC -11.8525 134.948 2 4 259
1956084S12138 1956 30 SI WA NOT_NAMED 1956-03-25 23:00:00 TS -11.8864 134.814 main 22 22 P_____P__PO___ SH281956 -11.8750 134.772 40 0 -11.8776 134.853 -11.9044 134.871 TC -11.9000 134.800 2 40 5 256
1956084S12138 1956 30 SI WA NOT_NAMED 1956-03-25 23:30:00 TS -11.8973 134.773 998 bom main 22 22 P_____O__PP___ SH281956 -11.8871 134.737 40 0 -11.9000 134.800 998 -11.9022 134.835 TC -11.9101 134.755 2 5 253
1956084S12138 1956 30 SI WA NOT_NAMED 1956-03-26 00:00:00 TS -11.9092 134.731 main 22 11 O_____P__OP___ jtwc_sh SH281956 -11.9000 134.700 40 0 -11.9252 134.743 -11.9000 134.800 TC 35 998 -11.9209 134.710 2 6 245
1956084S12138 1956 30 SI WA NOT_NAMED 1956-03-26 03:00:00 TS -12.0316 134.473 bom main 11 0 P_____O__PP___ SH281956 -11.9775 134.465 37 0 -12.1000 134.400 -12.1004 134.614 TC -12.0027 134.419 2 6 242
1956084S12138 1956 30 SI WA NOT_NAMED 1956-03-26 06:00:00 TS -12.1817 134.212 main 0 0 O_____P__PP___ jtwc_sh SH281956 -12.1000 134.200 35 0 -12.2899 134.110 -12.3008 134.427 TC -12.1177 134.123 2 6 237
1956084S12138 1956 30 SI WA NOT_NAMED 1956-03-26 09:00:00 TS -12.3600 133.948 main 0 0 P_____P__PP___ SH281956 -12.2701 133.885 35 0 -12.4868 133.881 -12.5010 134.240 TC -12.2720 133.851 2 6 233
1956084S12138 1956 30 SI WA NOT_NAMED 1956-03-26 11:00:00 TS -12.4978 133.789 main 0 0 P_____P__PO___ SH281956 -12.4167 133.686 35 0 -12.6214 133.757 -12.6344 134.115 TC -12.4000 133.700 2 6 227
1956084S12138 1956 30 SI WA NOT_NAMED 1956-03-26 12:00:00 TS -12.5734 133.717 main 0 0 O_____P__PP___ jtwc_sh SH281956 -12.5000 133.600 35 0 -12.6896 133.703 -12.7011 134.052 TC -12.4764 133.630 2 6 217
1956084S12138 1956 30 SI WA NOT_NAMED 1956-03-26 15:00:00 TS -12.8248 133.538 main 0 0 P_____P__PP___ SH281956 -12.7925 133.405 32 -1 -12.8971 133.564 -12.9010 133.865 TC -12.7408 133.452 2 6 210
1956084S12138 1956 30 SI WA NOT_NAMED 1956-03-26 18:00:00 TS -13.0885 133.413 main 0 0 O_____P__PP___ jtwc_sh SH281956 -13.1000 133.300 30 -1 -13.1081 133.456 -13.1008 133.677 TC -13.0336 133.333 2 6 202
1956084S12138 1956 30 SI WA NOT_NAMED 1956-03-26 21:00:00 TS -13.3390 133.325 main 0 0 P_____P__PP___ SH281956 -13.3725 133.247 30 -1 -13.3214 133.367 -13.3005 133.489 TC -13.3237 133.286 2 5 195
1956084S12138 1956 30 SI WA NOT_NAMED 1956-03-26 23:00:00 TS -13.4985 133.298 main 0 0 P_____P__PO___ SH281956 -13.5307 133.269 30 -1 -13.4643 133.313 -13.4335 133.363 TC -13.5000 133.300 1 30 5 0
1956084S12138 1956 30 SI WA NOT_NAMED 1956-03-26 23:30:00 TS -13.5409 133.297 994 bom main 0 0 P_____O__PP___ SH281956 -13.5663 133.283 30 -1 -13.5000 133.300 994 -13.4668 133.331 TC -13.5376 133.309 1 5 166
1956084S12138 1956 30 SI WA NOT_NAMED 1956-03-27 00:00:00 TS -13.5844 133.306 main 0 0 O________OP___ jtwc_sh SH281956 -13.6000 133.300 30 -1 -13.5000 133.300 TC 40 994 -13.5742 133.320 1 5 145
1956084S12138 1956 30 SI WA NOT_NAMED 1956-03-27 03:00:00 TS -13.7686 133.460 main 0 0 P_________P___ SH281956 -13.7650 133.470 32 -1 TC -13.7758 133.441 1 5 133
1956084S12138 1956 30 SI WA NOT_NAMED 1956-03-27 06:00:00 TS -13.9169 133.676 main 0 0 O_________P___ jtwc_sh SH281956 -13.9000 133.700 35 0 TC -13.9508 133.627 1 5 126
1956084S12138 1956 30 SI WA NOT_NAMED 1956-03-27 09:00:00 TS -14.0734 133.888 main 0 0 P_________P___ SH281956 -14.0575 133.908 37 0 TC -14.1053 133.849 1 5 127
1956084S12138 1956 30 SI WA NOT_NAMED 1956-03-27 11:00:00 TS -14.1705 134.026 main 0 0 P_________O___ SH281956 -14.1557 134.039 39 0 TC -14.2000 134.000 2 5 125
1956084S12138 1956 30 SI WA NOT_NAMED 1956-03-27 12:00:00 TS -14.2087 134.083 main 0 0 O_________P___ jtwc_sh SH281956 -14.2000 134.100 40 0 TC -14.2261 134.050 2 3 121
1956084S12138 1956 30 SI WA NOT_NAMED 1956-03-27 15:00:00 TS -14.2897 134.229 main 0 0 P_________P___ SH281956 -14.2924 134.243 45 0 TC -14.2842 134.201 2 3 121
1956084S12138 1956 30 SI WA NOT_NAMED 1956-03-27 18:00:00 TS -14.3870 134.392 main 0 0 O_________P___ jtwc_sh SH281956 -14.4000 134.400 50 0 TC -14.3609 134.375 2 4 123
1956084S12138 1956 30 SI WA NOT_NAMED 1956-03-27 21:00:00 TS -14.5228 134.600 main 0 0 P_________P___ SH281956 -14.5249 134.598 50 0 TC -14.5187 134.603 2 6 128
1956084S12138 1956 30 SI WA NOT_NAMED 1956-03-27 23:00:00 TS -14.6882 134.789 main 0 0 P_________O___ SH281956 -14.6823 134.783 50 0 TC -14.7000 134.800 2 50 8 134
1956084S12138 1956 30 SI WA NOT_NAMED 1956-03-28 00:00:00 TS -14.8117 134.907 main 0 0 O_________P___ jtwc_sh SH281956 -14.8000 134.900 50 0 -14.8352 134.922 2 13 140
1956084S12138 1956 30 SP EA NOT_NAMED 1956-03-28 03:00:00 TS -15.3405 135.358 main 0 0 P_________P___ SH281956 -15.3401 135.362 47 0 -15.3413 135.350 2 15 141
1956084S12138 1956 30 SP EA NOT_NAMED 1956-03-28 06:00:00 TS -15.9824 135.881 main 0 0 O_________P___ jtwc_sh SH281956 -16.0000 135.900 45 0 -15.9471 135.842 2 16 142
1956084S12138 1956 30 SP EA NOT_NAMED 1956-03-28 09:00:00 TS -16.6106 136.392 main 0 0 P_________P___ SH281956 -16.6224 136.408 40 0 -16.5869 136.360 2 16 142
1956084S12138 1956 30 SP EA NOT_NAMED 1956-03-28 11:00:00 TS -17.0114 136.726 main 0 0 P_________O___ SH281956 -17.0171 136.739 36 0 -17.0000 136.700 2 15 141
1956084S12138 1956 30 SP EA NOT_NAMED 1956-03-28 12:00:00 TS -17.1865 136.886 main 0 0 O_________P___ jtwc_sh SH281956 -17.2000 136.900 35 0 -17.1594 136.858 2 13 137
1956084S12138 1956 30 SP EA NOT_NAMED 1956-03-28 15:00:00 TS -17.6430 137.352 main 0 0 P_________P___ SH281956 -17.6574 137.365 30 -1 -17.6142 137.326 2 13 136
1956084S12138 1956 30 SP EA NOT_NAMED 1956-03-28 18:00:00 TS -18.0916 137.794 main 0 0 O_________P___ jtwc_sh SH281956 -18.1000 137.800 25 -1 -18.0749 137.783 2 13 139
1956084S12138 1956 30 SP EA NOT_NAMED 1956-03-28 21:00:00 TS -18.5914 138.208 main 0 0 P_________P___ SH281956 -18.5898 138.201 22 -1 -18.5946 138.221 2 13 144
1956084S12138 1956 30 SP EA NOT_NAMED 1956-03-28 23:00:00 TS -18.9847 138.476 main 0 0 P_________O___ SH281956 -18.9771 138.464 20 -1 -19.0000 138.500 1 20 15 148
1956084S12138 1956 30 SP EA NOT_NAMED 1956-03-29 00:00:00 TS -19.2113 138.617 main 0 0 O_________P___ jtwc_sh SH281956 -19.2000 138.600 20 -1 -19.2340 138.651 1 18 151
1956084S12138 1956 30 SP EA NOT_NAMED 1956-03-29 03:00:00 TS -20.0025 139.074 main 0 0 P_________P___ SH281956 -19.9976 139.065 20 -1 -20.0122 139.092 1 19 154
1956084S12138 1956 30 SP EA NOT_NAMED 1956-03-29 06:00:00 TS -20.8918 139.499 main 0 0 O_________P___ jtwc_sh SH281956 -20.9000 139.500 20 -1 -20.8754 139.496 1 19 158
1956084S12138 1956 30 SP EA NOT_NAMED 1956-03-29 09:00:00 TS -21.7901 139.850 main 0 0 P_________P___ SH281956 -21.7924 139.860 22 -1 -21.7856 139.831 1 19 162
1956084S12138 1956 30 SP EA NOT_NAMED 1956-03-29 11:00:00 TS -22.3982 140.024 main 0 0 P_________O___ SH281956 -22.3974 140.036 24 -1 -22.4000 140.000 1 19 166
1956084S12138 1956 30 SP EA NOT_NAMED 1956-03-29 12:00:00 TS -22.6940 140.088 main 0 0 O_________P___ jtwc_sh SH281956 -22.7000 140.100 25 -1 -22.6820 140.064 1 18 173
1956084S12138 1956 30 SP EA NOT_NAMED 1956-03-29 15:00:00 TS -23.5782 140.191 main 0 0 P_________P___ SH281956 -23.5999 140.196 25 -1 -23.5349 140.183 1 18 176
1956084S12138 1956 30 SP EA NOT_NAMED 1956-03-29 18:00:00 TS -24.4716 140.207 main 0 0 O_________P___ jtwc_sh SH281956 -24.5000 140.200 25 -1 -24.4149 140.221 1 18 0
1956084S12138 1956 30 SP EA NOT_NAMED 1956-03-29 21:00:00 TS -25.3561 140.210 main 0 0 P_________P___ SH281956 -25.3625 140.208 25 -1 -25.3433 140.214 1 18 0
1956084S12138 1956 30 SP EA NOT_NAMED 1956-03-29 23:00:00 TS -25.9810 140.202 main 0 0 P_________O___ SH281956 -25.9715 140.203 25 -1 -26.0000 140.200 1 25 19 181
1956084S12138 1956 30 SP EA NOT_NAMED 1956-03-30 00:00:00 TS -26.3170 140.199 main 0 0 O_________P___ jtwc_sh SH281956 -26.3000 140.200 25 -1 -26.3509 140.198 1 25 22 0
1956084S12138 1956 30 SP EA NOT_NAMED 1956-03-30 03:00:00 TS -27.4320 140.192 main 0 0 P_________P___ SH281956 -27.4200 140.200 25 -1 -27.4560 140.176 1 25 23 180
1956084S12138 1956 30 SP EA NOT_NAMED 1956-03-30 06:00:00 TS -28.6018 140.185 main 0 0 O_________P___ jtwc_sh SH281956 -28.6000 140.200 25 -1 -28.6053 140.154 1 25 23 0
1956084S12138 1956 30 SP EA NOT_NAMED 1956-03-30 09:00:00 TS -29.7333 140.183 main 0 0 P_________P___ SH281956 -29.7225 140.193 25 -1 -29.7550 140.162 1 25 22 179
1956084S12138 1956 30 SP EA NOT_NAMED 1956-03-30 11:00:00 TS -30.4649 140.196 main 0 0 P_________O___ SH281956 -30.4474 140.194 25 -1 -30.5000 140.200 1 25 22 0
1956084S12138 1956 30 SP EA NOT_NAMED 1956-03-30 12:00:00 TS -30.8127 140.201 main 0 0 O_________P___ jtwc_sh SH281956 -30.8000 140.200 25 -1 -30.8381 140.202 1 25 20 0
1956084S12138 1956 30 SP EA NOT_NAMED 1956-03-30 15:00:00 TS -31.8115 140.201 main 0 0 P_________P___ SH281956 -31.8072 140.184 25 -1 -31.8201 140.235 1 25 20 177
1956084S12138 1956 30 SP EA NOT_NAMED 1956-03-30 18:00:00 TS -32.7964 140.322 main 0 0 O_________P___ jtwc_sh SH281956 -32.8000 140.300 25 -1 -32.7891 140.365 1 25 20 170
1956084S12138 1956 30 SP EA NOT_NAMED 1956-03-30 21:00:00 TS -33.8048 140.629 main 0 0 P_________P___ SH281956 -33.8116 140.611 25 -1 -33.7913 140.666 1 25 22 162
1956084S12138 1956 30 SP EA NOT_NAMED 1956-03-30 23:00:00 TS -34.5159 140.979 main 0 0 P_________O___ SH281956 -34.5239 140.968 25 -1 -34.5000 141.000 1 25 24 156
1956084S12138 1956 30 SP EA NOT_NAMED 1956-03-31 00:00:00 TS -34.8964 141.208 main 0 0 O_________P___ jtwc_sh SH281956 -34.9000 141.200 25 -1 -34.8891 141.225 1 28 150
1956084S12138 1956 30 SP EA NOT_NAMED 1956-03-31 03:00:00 TS -36.1216 142.087 main 0 0 P_________P___ SH281956 -36.1277 142.088 25 -1 -36.1095 142.087 1 30 147
1956084S12138 1956 30 SP EA NOT_NAMED 1956-03-31 06:00:00 TS -37.3889 143.189 main 0 0 O_________P___ jtwc_sh SH281956 -37.4000 143.200 25 -1 -37.3668 143.167 1 31 144
1956084S12138 1956 30 SP EA NOT_NAMED 1956-03-31 09:00:00 TS -38.6223 144.377 main 28 28 P_________P___ SH281956 -38.6298 144.379 22 -1 -38.6072 144.373 1 31 142
1956084S12138 1956 30 SP EA NOT_NAMED 1956-03-31 11:00:00 TS -39.4131 145.197 main 81 81 P_________O___ SH281956 -39.4196 145.196 20 -1 -39.4000 145.200 1 30 141
1956084S12138 1956 30 SP EA NOT_NAMED 1956-03-31 12:00:00 TS -39.7925 145.604 main 103 34 O_________P___ jtwc_sh SH281956 -39.8000 145.600 20 -1 -39.7814 145.609 1 29 140
1956084S12138 1956 30 SP EA NOT_NAMED 1956-03-31 15:00:00 TS -40.8741 146.790 main 22 0 P_________P___ SH281956 -40.8790 146.765 20 -1 -40.8691 146.816 1 28 140
1956084S12138 1956 30 SP EA NOT_NAMED 1956-03-31 18:00:00 TS -41.8940 147.963 main 0 0 O_________P___ jtwc_sh SH281956 -41.9000 147.900 20 -1 -41.8900 148.005 1 27 138
1956084S12138 1956 30 SP EA NOT_NAMED 1956-03-31 21:00:00 NR -42.8654 149.195 main 99 99 __________P___ SH281956 -1 -42.8654 149.195 1 26 137
1956084S12138 1956 30 SP EA NOT_NAMED 1956-03-31 23:00:00 NR -43.5000 150.000 main 164 __________O___ SH281956 -1 -43.5000 150.000 1 15 26 137

Digital Typhoon Data and Search

About IBTrACS Database

This database is a web-friendly format of International Best Track Archive for Climate Stewardship (IBTrACS), a global best track data archive curated by NOAA dating back to 1842.

Updated: 2021-10-21